sensor_id;sensor_type;location;lat;lon;timestamp;P1;durP1;ratioP1;P2;durP2;ratioP2
71562;SDS011;59391;52.504;13.438;2022-10-26T00:01:30;15.10;;;8.90;;
71562;SDS011;59391;52.504;13.438;2022-10-26T00:03:55;13.98;;;7.72;;
71562;SDS011;59391;52.504;13.438;2022-10-26T00:06:22;12.57;;;7.20;;
71562;SDS011;59391;52.504;13.438;2022-10-26T00:08:51;13.55;;;7.93;;
71562;SDS011;59391;52.504;13.438;2022-10-26T00:11:17;17.48;;;9.35;;
71562;SDS011;59391;52.504;13.438;2022-10-26T00:13:44;16.25;;;8.73;;
71562;SDS011;59391;52.504;13.438;2022-10-26T00:16:16;13.68;;;8.77;;
71562;SDS011;59391;52.504;13.438;2022-10-26T00:18:49;16.60;;;8.63;;
71562;SDS011;59391;52.504;13.438;2022-10-26T00:21:15;15.60;;;8.95;;
71562;SDS011;59391;52.504;13.438;2022-10-26T00:23:41;15.85;;;8.98;;
71562;SDS011;59391;52.504;13.438;2022-10-26T00:26:08;20.00;;;10.60;;
71562;SDS011;59391;52.504;13.438;2022-10-26T00:28:34;13.18;;;8.30;;
71562;SDS011;59391;52.504;13.438;2022-10-26T00:31:04;17.00;;;8.27;;
71562;SDS011;59391;52.504;13.438;2022-10-26T00:33:37;17.10;;;8.88;;
71562;SDS011;59391;52.504;13.438;2022-10-26T00:36:03;12.60;;;7.85;;
71562;SDS011;59391;52.504;13.438;2022-10-26T00:38:29;18.25;;;9.02;;
71562;SDS011;59391;52.504;13.438;2022-10-26T00:40:56;15.18;;;8.15;;
71562;SDS011;59391;52.504;13.438;2022-10-26T00:45:50;14.82;;;8.68;;
71562;SDS011;59391;52.504;13.438;2022-10-26T00:48:24;15.32;;;8.68;;
71562;SDS011;59391;52.504;13.438;2022-10-26T00:50:54;15.07;;;8.40;;
71562;SDS011;59391;52.504;13.438;2022-10-26T00:53:24;14.88;;;8.32;;
71562;SDS011;59391;52.504;13.438;2022-10-26T00:55:51;13.75;;;8.43;;
71562;SDS011;59391;52.504;13.438;2022-10-26T00:58:19;15.80;;;8.45;;
71562;SDS011;59391;52.504;13.438;2022-10-26T01:00:46;15.00;;;8.73;;
71562;SDS011;59391;52.504;13.438;2022-10-26T01:03:13;13.43;;;8.30;;
71562;SDS011;59391;52.504;13.438;2022-10-26T01:05:41;12.52;;;7.75;;
71562;SDS011;59391;52.504;13.438;2022-10-26T01:08:09;14.95;;;8.32;;
71562;SDS011;59391;52.504;13.438;2022-10-26T01:10:37;13.23;;;7.85;;
71562;SDS011;59391;52.504;13.438;2022-10-26T01:13:06;15.45;;;8.43;;
71562;SDS011;59391;52.504;13.438;2022-10-26T01:15:37;13.03;;;7.70;;
71562;SDS011;59391;52.504;13.438;2022-10-26T01:18:32;14.93;;;8.77;;
71562;SDS011;59391;52.504;13.438;2022-10-26T01:32:51;14.50;;;8.82;;
71562;SDS011;59391;52.504;13.438;2022-10-26T01:35:31;15.15;;;8.43;;
71562;SDS011;59391;52.504;13.438;2022-10-26T01:38:35;16.55;;;8.20;;
71562;SDS011;59391;52.504;13.438;2022-10-26T01:43:53;15.82;;;9.25;;
71562;SDS011;59391;52.504;13.438;2022-10-26T01:46:24;14.10;;;8.65;;
71562;SDS011;59391;52.504;13.438;2022-10-26T01:48:54;14.07;;;8.27;;
71562;SDS011;59391;52.504;13.438;2022-10-26T01:51:25;13.90;;;8.40;;
71562;SDS011;59391;52.504;13.438;2022-10-26T01:53:52;15.25;;;9.45;;
71562;SDS011;59391;52.504;13.438;2022-10-26T01:56:20;15.55;;;8.60;;
71562;SDS011;59391;52.504;13.438;2022-10-26T01:59:02;15.77;;;8.80;;
71562;SDS011;59391;52.504;13.438;2022-10-26T02:20:21;16.73;;;8.68;;
71562;SDS011;59391;52.504;13.438;2022-10-26T02:23:01;15.25;;;9.13;;
71562;SDS011;59391;52.504;13.438;2022-10-26T02:25:39;14.95;;;9.15;;
71562;SDS011;59391;52.504;13.438;2022-10-26T02:28:13;14.75;;;8.82;;
71562;SDS011;59391;52.504;13.438;2022-10-26T02:30:46;14.73;;;9.32;;
71562;SDS011;59391;52.504;13.438;2022-10-26T02:33:17;18.80;;;10.48;;
71562;SDS011;59391;52.504;13.438;2022-10-26T02:35:46;14.60;;;9.05;;
71562;SDS011;59391;52.504;13.438;2022-10-26T02:38:16;16.38;;;9.38;;
71562;SDS011;59391;52.504;13.438;2022-10-26T02:40:45;15.60;;;9.82;;
71562;SDS011;59391;52.504;13.438;2022-10-26T02:43:15;15.60;;;8.80;;
71562;SDS011;59391;52.504;13.438;2022-10-26T02:45:47;15.77;;;9.52;;
71562;SDS011;59391;52.504;13.438;2022-10-26T02:48:18;15.27;;;8.95;;
71562;SDS011;59391;52.504;13.438;2022-10-26T02:51:01;15.85;;;9.13;;
71562;SDS011;59391;52.504;13.438;2022-10-26T02:59:27;15.93;;;9.27;;
71562;SDS011;59391;52.504;13.438;2022-10-26T03:01:58;14.73;;;9.25;;
71562;SDS011;59391;52.504;13.438;2022-10-26T03:04:31;16.67;;;8.65;;
71562;SDS011;59391;52.504;13.438;2022-10-26T03:06:59;17.08;;;9.80;;
71562;SDS011;59391;52.504;13.438;2022-10-26T03:09:25;15.52;;;9.82;;
71562;SDS011;59391;52.504;13.438;2022-10-26T03:11:51;16.95;;;10.65;;
71562;SDS011;59391;52.504;13.438;2022-10-26T03:14:17;17.08;;;10.05;;
71562;SDS011;59391;52.504;13.438;2022-10-26T03:16:43;15.40;;;9.27;;
71562;SDS011;59391;52.504;13.438;2022-10-26T03:19:08;16.17;;;9.85;;
71562;SDS011;59391;52.504;13.438;2022-10-26T03:21:34;17.40;;;9.73;;
71562;SDS011;59391;52.504;13.438;2022-10-26T03:24:00;14.35;;;9.10;;
71562;SDS011;59391;52.504;13.438;2022-10-26T03:26:26;13.80;;;8.87;;
71562;SDS011;59391;52.504;13.438;2022-10-26T03:28:51;18.85;;;10.40;;
71562;SDS011;59391;52.504;13.438;2022-10-26T03:31:17;17.27;;;9.40;;
71562;SDS011;59391;52.504;13.438;2022-10-26T03:33:42;15.23;;;9.00;;
71562;SDS011;59391;52.504;13.438;2022-10-26T03:36:08;16.90;;;8.80;;
71562;SDS011;59391;52.504;13.438;2022-10-26T03:38:34;16.75;;;9.35;;
71562;SDS011;59391;52.504;13.438;2022-10-26T03:41:00;15.63;;;9.23;;
71562;SDS011;59391;52.504;13.438;2022-10-26T03:43:26;15.88;;;9.18;;
71562;SDS011;59391;52.504;13.438;2022-10-26T03:45:51;13.05;;;8.50;;
71562;SDS011;59391;52.504;13.438;2022-10-26T03:48:17;19.10;;;9.73;;
71562;SDS011;59391;52.504;13.438;2022-10-26T03:50:43;14.47;;;9.00;;
71562;SDS011;59391;52.504;13.438;2022-10-26T03:53:09;14.02;;;8.90;;
71562;SDS011;59391;52.504;13.438;2022-10-26T03:55:35;13.20;;;8.48;;
71562;SDS011;59391;52.504;13.438;2022-10-26T03:58:01;15.53;;;8.67;;
71562;SDS011;59391;52.504;13.438;2022-10-26T04:00:27;16.85;;;9.48;;
71562;SDS011;59391;52.504;13.438;2022-10-26T04:02:56;15.47;;;9.13;;
71562;SDS011;59391;52.504;13.438;2022-10-26T04:05:24;13.02;;;8.52;;
71562;SDS011;59391;52.504;13.438;2022-10-26T04:07:55;14.77;;;8.95;;
71562;SDS011;59391;52.504;13.438;2022-10-26T04:10:28;15.65;;;9.32;;
71562;SDS011;59391;52.504;13.438;2022-10-26T04:12:55;14.77;;;9.05;;
71562;SDS011;59391;52.504;13.438;2022-10-26T04:15:21;16.10;;;9.77;;
71562;SDS011;59391;52.504;13.438;2022-10-26T04:17:47;17.08;;;8.88;;
71562;SDS011;59391;52.504;13.438;2022-10-26T04:20:18;14.20;;;8.90;;
71562;SDS011;59391;52.504;13.438;2022-10-26T04:22:44;15.00;;;9.20;;
71562;SDS011;59391;52.504;13.438;2022-10-26T04:25:10;14.48;;;9.77;;
71562;SDS011;59391;52.504;13.438;2022-10-26T04:27:37;16.92;;;9.05;;
71562;SDS011;59391;52.504;13.438;2022-10-26T04:30:03;16.93;;;9.57;;
71562;SDS011;59391;52.504;13.438;2022-10-26T04:32:32;17.60;;;9.77;;
71562;SDS011;59391;52.504;13.438;2022-10-26T04:34:57;13.97;;;8.40;;
71562;SDS011;59391;52.504;13.438;2022-10-26T04:37:23;17.33;;;9.68;;
71562;SDS011;59391;52.504;13.438;2022-10-26T04:39:48;15.87;;;9.17;;
71562;SDS011;59391;52.504;13.438;2022-10-26T04:42:14;15.03;;;9.10;;
71562;SDS011;59391;52.504;13.438;2022-10-26T04:44:40;14.23;;;8.93;;
71562;SDS011;59391;52.504;13.438;2022-10-26T04:47:05;15.33;;;8.87;;
71562;SDS011;59391;52.504;13.438;2022-10-26T04:49:31;14.55;;;9.45;;
71562;SDS011;59391;52.504;13.438;2022-10-26T04:51:57;14.33;;;8.83;;
71562;SDS011;59391;52.504;13.438;2022-10-26T04:54:22;14.70;;;8.25;;
71562;SDS011;59391;52.504;13.438;2022-10-26T04:56:50;14.07;;;8.55;;
71562;SDS011;59391;52.504;13.438;2022-10-26T04:59:16;14.73;;;8.98;;
71562;SDS011;59391;52.504;13.438;2022-10-26T05:01:42;15.33;;;8.73;;
71562;SDS011;59391;52.504;13.438;2022-10-26T05:04:07;14.32;;;9.13;;
71562;SDS011;59391;52.504;13.438;2022-10-26T05:06:33;14.32;;;9.18;;
71562;SDS011;59391;52.504;13.438;2022-10-26T05:08:59;15.13;;;8.97;;
71562;SDS011;59391;52.504;13.438;2022-10-26T05:11:26;14.57;;;9.30;;
71562;SDS011;59391;52.504;13.438;2022-10-26T05:13:51;15.65;;;9.10;;
71562;SDS011;59391;52.504;13.438;2022-10-26T05:16:17;14.15;;;8.75;;
71562;SDS011;59391;52.504;13.438;2022-10-26T05:18:43;12.97;;;8.50;;
71562;SDS011;59391;52.504;13.438;2022-10-26T05:21:11;14.75;;;8.80;;
71562;SDS011;59391;52.504;13.438;2022-10-26T05:23:43;14.40;;;8.90;;
71562;SDS011;59391;52.504;13.438;2022-10-26T05:26:15;14.10;;;8.02;;
71562;SDS011;59391;52.504;13.438;2022-10-26T05:28:41;12.80;;;8.50;;
71562;SDS011;59391;52.504;13.438;2022-10-26T05:31:06;13.00;;;7.90;;
71562;SDS011;59391;52.504;13.438;2022-10-26T05:33:32;15.37;;;8.10;;
71562;SDS011;59391;52.504;13.438;2022-10-26T05:35:57;13.27;;;8.10;;
71562;SDS011;59391;52.504;13.438;2022-10-26T05:38:23;13.43;;;7.63;;
71562;SDS011;59391;52.504;13.438;2022-10-26T05:40:49;16.45;;;7.90;;
71562;SDS011;59391;52.504;13.438;2022-10-26T05:43:18;15.48;;;8.13;;
71562;SDS011;59391;52.504;13.438;2022-10-26T05:45:45;13.65;;;7.75;;
71562;SDS011;59391;52.504;13.438;2022-10-26T05:48:14;12.95;;;7.63;;
71562;SDS011;59391;52.504;13.438;2022-10-26T05:50:39;11.17;;;7.47;;
71562;SDS011;59391;52.504;13.438;2022-10-26T05:53:05;14.82;;;8.02;;
71562;SDS011;59391;52.504;13.438;2022-10-26T05:55:31;11.18;;;7.43;;
71562;SDS011;59391;52.504;13.438;2022-10-26T05:57:57;13.60;;;8.10;;
71562;SDS011;59391;52.504;13.438;2022-10-26T06:00:27;17.75;;;8.43;;
71562;SDS011;59391;52.504;13.438;2022-10-26T06:03:00;17.70;;;8.18;;
71562;SDS011;59391;52.504;13.438;2022-10-26T06:05:53;12.35;;;7.80;;
71562;SDS011;59391;52.504;13.438;2022-10-26T06:08:24;13.32;;;7.97;;
71562;SDS011;59391;52.504;13.438;2022-10-26T06:10:53;15.25;;;7.85;;
71562;SDS011;59391;52.504;13.438;2022-10-26T06:13:20;13.30;;;7.72;;
71562;SDS011;59391;52.504;13.438;2022-10-26T06:22:17;13.10;;;8.13;;
71562;SDS011;59391;52.504;13.438;2022-10-26T06:28:20;14.73;;;7.85;;
71562;SDS011;59391;52.504;13.438;2022-10-26T06:31:01;13.23;;;8.23;;
71562;SDS011;59391;52.504;13.438;2022-10-26T06:33:26;11.97;;;7.77;;
71562;SDS011;59391;52.504;13.438;2022-10-26T06:35:56;13.43;;;8.35;;
71562;SDS011;59391;52.504;13.438;2022-10-26T06:39:03;15.73;;;9.50;;
71562;SDS011;59391;52.504;13.438;2022-10-26T06:41:33;14.88;;;8.88;;
71562;SDS011;59391;52.504;13.438;2022-10-26T06:44:00;12.95;;;7.88;;
71562;SDS011;59391;52.504;13.438;2022-10-26T06:46:38;13.20;;;8.63;;
71562;SDS011;59391;52.504;13.438;2022-10-26T06:49:27;19.70;;;11.07;;
71562;SDS011;59391;52.504;13.438;2022-10-26T06:52:11;20.52;;;11.13;;
71562;SDS011;59391;52.504;13.438;2022-10-26T06:57:20;19.80;;;10.90;;
71562;SDS011;59391;52.504;13.438;2022-10-26T06:59:52;18.37;;;9.27;;
71562;SDS011;59391;52.504;13.438;2022-10-26T07:02:21;19.48;;;10.90;;
71562;SDS011;59391;52.504;13.438;2022-10-26T07:04:47;23.17;;;11.68;;
71562;SDS011;59391;52.504;13.438;2022-10-26T07:07:14;21.00;;;10.90;;
71562;SDS011;59391;52.504;13.438;2022-10-26T07:09:47;18.35;;;10.23;;
71562;SDS011;59391;52.504;13.438;2022-10-26T07:12:14;22.27;;;11.65;;
71562;SDS011;59391;52.504;13.438;2022-10-26T07:14:39;19.48;;;10.73;;
71562;SDS011;59391;52.504;13.438;2022-10-26T07:17:05;18.73;;;10.60;;
71562;SDS011;59391;52.504;13.438;2022-10-26T07:19:33;19.45;;;11.32;;
71562;SDS011;59391;52.504;13.438;2022-10-26T07:21:58;18.73;;;10.13;;
71562;SDS011;59391;52.504;13.438;2022-10-26T07:24:25;17.75;;;9.93;;
71562;SDS011;59391;52.504;13.438;2022-10-26T07:26:55;21.05;;;11.60;;
71562;SDS011;59391;52.504;13.438;2022-10-26T07:29:22;17.58;;;10.30;;
71562;SDS011;59391;52.504;13.438;2022-10-26T07:31:50;18.83;;;11.38;;
71562;SDS011;59391;52.504;13.438;2022-10-26T07:34:17;22.63;;;11.68;;
71562;SDS011;59391;52.504;13.438;2022-10-26T07:36:43;19.33;;;9.82;;
71562;SDS011;59391;52.504;13.438;2022-10-26T07:39:11;17.33;;;10.32;;
71562;SDS011;59391;52.504;13.438;2022-10-26T07:41:37;22.83;;;11.13;;
71562;SDS011;59391;52.504;13.438;2022-10-26T07:44:02;19.83;;;10.83;;
71562;SDS011;59391;52.504;13.438;2022-10-26T07:46:28;14.70;;;9.55;;
71562;SDS011;59391;52.504;13.438;2022-10-26T07:48:54;20.13;;;9.48;;
71562;SDS011;59391;52.504;13.438;2022-10-26T07:51:19;23.63;;;9.60;;
71562;SDS011;59391;52.504;13.438;2022-10-26T07:53:45;19.48;;;10.82;;
71562;SDS011;59391;52.504;13.438;2022-10-26T07:56:11;21.15;;;10.40;;
71562;SDS011;59391;52.504;13.438;2022-10-26T07:58:40;13.68;;;9.45;;
71562;SDS011;59391;52.504;13.438;2022-10-26T08:01:06;17.02;;;9.98;;
71562;SDS011;59391;52.504;13.438;2022-10-26T08:03:36;15.30;;;10.13;;
71562;SDS011;59391;52.504;13.438;2022-10-26T08:06:02;16.63;;;10.10;;
71562;SDS011;59391;52.504;13.438;2022-10-26T08:08:29;15.27;;;9.98;;
71562;SDS011;59391;52.504;13.438;2022-10-26T08:10:55;17.85;;;10.20;;
71562;SDS011;59391;52.504;13.438;2022-10-26T08:13:22;20.27;;;9.82;;
71562;SDS011;59391;52.504;13.438;2022-10-26T08:15:49;19.90;;;9.10;;
71562;SDS011;59391;52.504;13.438;2022-10-26T08:18:17;19.67;;;10.30;;
71562;SDS011;59391;52.504;13.438;2022-10-26T08:20:43;16.25;;;8.90;;
71562;SDS011;59391;52.504;13.438;2022-10-26T08:23:08;15.17;;;9.17;;
71562;SDS011;59391;52.504;13.438;2022-10-26T08:25:34;13.77;;;8.27;;
71562;SDS011;59391;52.504;13.438;2022-10-26T08:28:03;14.10;;;8.38;;
71562;SDS011;59391;52.504;13.438;2022-10-26T08:30:29;15.05;;;9.20;;
71562;SDS011;59391;52.504;13.438;2022-10-26T08:33:14;14.00;;;8.40;;
71562;SDS011;59391;52.504;13.438;2022-10-26T08:35:39;18.23;;;9.68;;
71562;SDS011;59391;52.504;13.438;2022-10-26T08:38:05;13.00;;;9.10;;
71562;SDS011;59391;52.504;13.438;2022-10-26T08:40:31;17.33;;;10.38;;
71562;SDS011;59391;52.504;13.438;2022-10-26T08:43:03;17.65;;;10.10;;
71562;SDS011;59391;52.504;13.438;2022-10-26T08:45:45;16.95;;;10.32;;
71562;SDS011;59391;52.504;13.438;2022-10-26T08:48:19;14.10;;;9.55;;
71562;SDS011;59391;52.504;13.438;2022-10-26T08:50:55;13.10;;;9.10;;
71562;SDS011;59391;52.504;13.438;2022-10-26T08:56:49;18.77;;;11.63;;
71562;SDS011;59391;52.504;13.438;2022-10-26T08:58:54;18.88;;;11.48;;
71562;SDS011;59391;52.504;13.438;2022-10-26T09:01:29;15.02;;;9.20;;
71562;SDS011;59391;52.504;13.438;2022-10-26T09:03:56;15.52;;;9.70;;
71562;SDS011;59391;52.504;13.438;2022-10-26T09:09:14;15.50;;;9.05;;
71562;SDS011;59391;52.504;13.438;2022-10-26T09:15:11;16.15;;;9.15;;
71562;SDS011;59391;52.504;13.438;2022-10-26T09:21:24;15.70;;;10.25;;
71562;SDS011;59391;52.504;13.438;2022-10-26T09:24:32;17.65;;;9.35;;
71562;SDS011;59391;52.504;13.438;2022-10-26T09:29:53;14.80;;;9.33;;
71562;SDS011;59391;52.504;13.438;2022-10-26T09:32:28;15.60;;;9.70;;
71562;SDS011;59391;52.504;13.438;2022-10-26T09:35:03;16.05;;;8.35;;
71562;SDS011;59391;52.504;13.438;2022-10-26T09:37:49;14.90;;;8.52;;
71562;SDS011;59391;52.504;13.438;2022-10-26T09:40:41;12.18;;;8.40;;
71562;SDS011;59391;52.504;13.438;2022-10-26T09:43:25;15.93;;;8.83;;
71562;SDS011;59391;52.504;13.438;2022-10-26T09:46:33;12.25;;;8.68;;
71562;SDS011;59391;52.504;13.438;2022-10-26T09:49:35;13.00;;;8.23;;
71562;SDS011;59391;52.504;13.438;2022-10-26T09:52:23;12.63;;;8.13;;
71562;SDS011;59391;52.504;13.438;2022-10-26T09:54:48;11.18;;;7.20;;
71562;SDS011;59391;52.504;13.438;2022-10-26T09:57:15;14.77;;;9.10;;
71562;SDS011;59391;52.504;13.438;2022-10-26T09:59:44;13.65;;;8.32;;
71562;SDS011;59391;52.504;13.438;2022-10-26T10:05:20;12.33;;;7.10;;
71562;SDS011;59391;52.504;13.438;2022-10-26T10:07:50;11.32;;;7.53;;
71562;SDS011;59391;52.504;13.438;2022-10-26T10:10:18;13.55;;;8.35;;
71562;SDS011;59391;52.504;13.438;2022-10-26T10:12:47;10.63;;;6.60;;
71562;SDS011;59391;52.504;13.438;2022-10-26T10:17:51;11.23;;;6.90;;
71562;SDS011;59391;52.504;13.438;2022-10-26T10:20:31;12.82;;;6.70;;
71562;SDS011;59391;52.504;13.438;2022-10-26T10:22:59;11.52;;;6.40;;
71562;SDS011;59391;52.504;13.438;2022-10-26T10:25:36;11.87;;;6.90;;
71562;SDS011;59391;52.504;13.438;2022-10-26T10:28:20;13.55;;;6.90;;
71562;SDS011;59391;52.504;13.438;2022-10-26T10:30:53;13.52;;;6.05;;
71562;SDS011;59391;52.504;13.438;2022-10-26T10:33:35;8.48;;;5.35;;
71562;SDS011;59391;52.504;13.438;2022-10-26T10:36:06;8.80;;;5.10;;
71562;SDS011;59391;52.504;13.438;2022-10-26T10:38:39;9.67;;;5.10;;
71562;SDS011;59391;52.504;13.438;2022-10-26T10:41:17;9.05;;;4.90;;
71562;SDS011;59391;52.504;13.438;2022-10-26T10:43:51;8.38;;;4.72;;
71562;SDS011;59391;52.504;13.438;2022-10-26T10:46:31;7.50;;;3.92;;
71562;SDS011;59391;52.504;13.438;2022-10-26T10:49:05;8.77;;;3.70;;
71562;SDS011;59391;52.504;13.438;2022-10-26T10:51:43;8.33;;;6.60;;
71562;SDS011;59391;52.504;13.438;2022-10-26T10:54:20;7.50;;;5.53;;
71562;SDS011;59391;52.504;13.438;2022-10-26T10:57:15;6.40;;;3.72;;
71562;SDS011;59391;52.504;13.438;2022-10-26T11:00:28;7.72;;;4.32;;
71562;SDS011;59391;52.504;13.438;2022-10-26T11:03:04;9.33;;;3.97;;
71562;SDS011;59391;52.504;13.438;2022-10-26T11:06:22;9.90;;;4.60;;
71562;SDS011;59391;52.504;13.438;2022-10-26T11:09:02;6.75;;;3.60;;
71562;SDS011;59391;52.504;13.438;2022-10-26T11:11:46;7.68;;;3.47;;
71562;SDS011;59391;52.504;13.438;2022-10-26T11:14:19;6.65;;;3.70;;
71562;SDS011;59391;52.504;13.438;2022-10-26T11:17:13;8.80;;;3.47;;
71562;SDS011;59391;52.504;13.438;2022-10-26T11:22:41;6.82;;;3.97;;
71562;SDS011;59391;52.504;13.438;2022-10-26T11:25:35;6.63;;;3.53;;
71562;SDS011;59391;52.504;13.438;2022-10-26T11:28:47;9.38;;;4.00;;
71562;SDS011;59391;52.504;13.438;2022-10-26T11:31:22;6.30;;;3.53;;
71562;SDS011;59391;52.504;13.438;2022-10-26T11:34:05;6.60;;;3.60;;
71562;SDS011;59391;52.504;13.438;2022-10-26T11:36:44;6.78;;;3.90;;
71562;SDS011;59391;52.504;13.438;2022-10-26T11:39:21;6.45;;;4.20;;
71562;SDS011;59391;52.504;13.438;2022-10-26T11:45:22;9.60;;;5.50;;
71562;SDS011;59391;52.504;13.438;2022-10-26T11:48:03;7.28;;;3.83;;
71562;SDS011;59391;52.504;13.438;2022-10-26T11:50:40;8.60;;;4.10;;
71562;SDS011;59391;52.504;13.438;2022-10-26T11:53:12;7.80;;;3.75;;
71562;SDS011;59391;52.504;13.438;2022-10-26T11:55:52;7.32;;;5.03;;
71562;SDS011;59391;52.504;13.438;2022-10-26T11:58:23;7.47;;;4.10;;
71562;SDS011;59391;52.504;13.438;2022-10-26T12:00:56;7.55;;;3.90;;
71562;SDS011;59391;52.504;13.438;2022-10-26T12:03:32;10.45;;;5.45;;
71562;SDS011;59391;52.504;13.438;2022-10-26T12:06:14;6.75;;;3.50;;
71562;SDS011;59391;52.504;13.438;2022-10-26T12:08:48;8.48;;;3.38;;
71562;SDS011;59391;52.504;13.438;2022-10-26T12:11:37;7.90;;;4.30;;
71562;SDS011;59391;52.504;13.438;2022-10-26T12:23:26;6.63;;;4.20;;
71562;SDS011;59391;52.504;13.438;2022-10-26T12:34:02;7.30;;;3.20;;
71562;SDS011;59391;52.504;13.438;2022-10-26T12:39:32;5.73;;;3.00;;
71562;SDS011;59391;52.504;13.438;2022-10-26T12:53:05;7.90;;;3.92;;
71562;SDS011;59391;52.504;13.438;2022-10-26T12:58:17;7.47;;;3.50;;
71562;SDS011;59391;52.504;13.438;2022-10-26T13:01:19;6.78;;;3.83;;
71562;SDS011;59391;52.504;13.438;2022-10-26T13:09:42;7.03;;;3.20;;
71562;SDS011;59391;52.504;13.438;2022-10-26T13:15:27;8.75;;;4.60;;
71562;SDS011;59391;52.504;13.438;2022-10-26T13:18:07;6.55;;;3.55;;
71562;SDS011;59391;52.504;13.438;2022-10-26T13:26:26;6.57;;;3.10;;
71562;SDS011;59391;52.504;13.438;2022-10-26T13:28:55;5.50;;;2.75;;
71562;SDS011;59391;52.504;13.438;2022-10-26T13:34:01;6.93;;;3.50;;
71562;SDS011;59391;52.504;13.438;2022-10-26T13:36:36;6.82;;;3.50;;
71562;SDS011;59391;52.504;13.438;2022-10-26T13:39:12;6.27;;;3.20;;
71562;SDS011;59391;52.504;13.438;2022-10-26T13:41:46;28.42;;;20.00;;
71562;SDS011;59391;52.504;13.438;2022-10-26T13:44:21;7.03;;;4.22;;
71562;SDS011;59391;52.504;13.438;2022-10-26T13:46:54;12.57;;;7.35;;
71562;SDS011;59391;52.504;13.438;2022-10-26T13:49:29;5.93;;;3.05;;
71562;SDS011;59391;52.504;13.438;2022-10-26T13:52:03;6.07;;;2.70;;
71562;SDS011;59391;52.504;13.438;2022-10-26T13:54:46;6.70;;;2.72;;
71562;SDS011;59391;52.504;13.438;2022-10-26T13:57:41;7.28;;;3.38;;
71562;SDS011;59391;52.504;13.438;2022-10-26T14:00:34;8.85;;;4.57;;
71562;SDS011;59391;52.504;13.438;2022-10-26T14:03:10;6.77;;;3.40;;
71562;SDS011;59391;52.504;13.438;2022-10-26T14:05:40;6.60;;;3.25;;
71562;SDS011;59391;52.504;13.438;2022-10-26T14:08:13;6.25;;;3.08;;
71562;SDS011;59391;52.504;13.438;2022-10-26T14:10:50;5.53;;;2.90;;
71562;SDS011;59391;52.504;13.438;2022-10-26T14:13:22;7.93;;;4.90;;
71562;SDS011;59391;52.504;13.438;2022-10-26T14:15:51;7.17;;;3.50;;
71562;SDS011;59391;52.504;13.438;2022-10-26T14:18:22;7.78;;;5.10;;
71562;SDS011;59391;52.504;13.438;2022-10-26T14:23:25;6.05;;;2.95;;
71562;SDS011;59391;52.504;13.438;2022-10-26T14:26:30;6.90;;;3.10;;
71562;SDS011;59391;52.504;13.438;2022-10-26T14:29:22;6.13;;;3.20;;
71562;SDS011;59391;52.504;13.438;2022-10-26T14:31:50;7.05;;;3.55;;
71562;SDS011;59391;52.504;13.438;2022-10-26T14:34:17;7.10;;;3.30;;
71562;SDS011;59391;52.504;13.438;2022-10-26T14:36:47;7.93;;;3.42;;
71562;SDS011;59391;52.504;13.438;2022-10-26T14:41:54;5.57;;;2.37;;
71562;SDS011;59391;52.504;13.438;2022-10-26T14:44:23;6.00;;;2.65;;
71562;SDS011;59391;52.504;13.438;2022-10-26T14:46:50;8.57;;;2.65;;
71562;SDS011;59391;52.504;13.438;2022-10-26T14:49:17;5.97;;;2.83;;
71562;SDS011;59391;52.504;13.438;2022-10-26T14:51:46;6.93;;;2.42;;
71562;SDS011;59391;52.504;13.438;2022-10-26T14:54:20;5.47;;;2.90;;
71562;SDS011;59391;52.504;13.438;2022-10-26T14:56:48;5.10;;;2.60;;
71562;SDS011;59391;52.504;13.438;2022-10-26T14:59:27;6.38;;;2.97;;
71562;SDS011;59391;52.504;13.438;2022-10-26T15:02:14;11.45;;;3.22;;
71562;SDS011;59391;52.504;13.438;2022-10-26T15:05:02;4.97;;;2.70;;
71562;SDS011;59391;52.504;13.438;2022-10-26T15:07:42;6.10;;;2.90;;
71562;SDS011;59391;52.504;13.438;2022-10-26T15:18:43;20.92;;;16.45;;
71562;SDS011;59391;52.504;13.438;2022-10-26T15:23:54;10.93;;;5.35;;
71562;SDS011;59391;52.504;13.438;2022-10-26T15:26:21;11.63;;;6.43;;
71562;SDS011;59391;52.504;13.438;2022-10-26T15:28:48;7.82;;;4.47;;
71562;SDS011;59391;52.504;13.438;2022-10-26T15:33:40;10.80;;;4.83;;
71562;SDS011;59391;52.504;13.438;2022-10-26T15:36:20;11.18;;;4.40;;
71562;SDS011;59391;52.504;13.438;2022-10-26T15:38:49;12.73;;;4.80;;
71562;SDS011;59391;52.504;13.438;2022-10-26T15:41:22;8.50;;;4.18;;
71562;SDS011;59391;52.504;13.438;2022-10-26T15:43:53;8.68;;;4.53;;
71562;SDS011;59391;52.504;13.438;2022-10-26T15:46:22;8.77;;;4.72;;
71562;SDS011;59391;52.504;13.438;2022-10-26T15:48:53;9.73;;;6.00;;
71562;SDS011;59391;52.504;13.438;2022-10-26T15:51:22;11.20;;;5.40;;
71562;SDS011;59391;52.504;13.438;2022-10-26T15:53:48;14.35;;;6.38;;
71562;SDS011;59391;52.504;13.438;2022-10-26T15:56:15;15.05;;;9.27;;
71562;SDS011;59391;52.504;13.438;2022-10-26T15:58:48;10.43;;;4.73;;
71562;SDS011;59391;52.504;13.438;2022-10-26T16:01:15;15.15;;;8.70;;
71562;SDS011;59391;52.504;13.438;2022-10-26T16:03:47;13.00;;;5.55;;
71562;SDS011;59391;52.504;13.438;2022-10-26T16:06:18;16.58;;;7.38;;
71562;SDS011;59391;52.504;13.438;2022-10-26T16:08:51;13.82;;;7.25;;
71562;SDS011;59391;52.504;13.438;2022-10-26T16:11:20;13.53;;;6.37;;
71562;SDS011;59391;52.504;13.438;2022-10-26T16:13:47;19.92;;;7.07;;
71562;SDS011;59391;52.504;13.438;2022-10-26T16:16:13;11.85;;;5.65;;
71562;SDS011;59391;52.504;13.438;2022-10-26T16:18:42;11.05;;;5.50;;
71562;SDS011;59391;52.504;13.438;2022-10-26T16:21:13;13.32;;;6.60;;
71562;SDS011;59391;52.504;13.438;2022-10-26T16:23:42;14.68;;;5.75;;
71562;SDS011;59391;52.504;13.438;2022-10-26T16:26:11;10.75;;;5.70;;
71562;SDS011;59391;52.504;13.438;2022-10-26T16:28:37;9.75;;;5.45;;
71562;SDS011;59391;52.504;13.438;2022-10-26T16:31:04;13.37;;;6.20;;
71562;SDS011;59391;52.504;13.438;2022-10-26T16:33:34;16.35;;;7.07;;
71562;SDS011;59391;52.504;13.438;2022-10-26T16:35:59;16.20;;;7.37;;
71562;SDS011;59391;52.504;13.438;2022-10-26T16:38:26;14.50;;;8.10;;
71562;SDS011;59391;52.504;13.438;2022-10-26T16:40:59;15.90;;;8.18;;
71562;SDS011;59391;52.504;13.438;2022-10-26T16:43:30;21.38;;;9.27;;
71562;SDS011;59391;52.504;13.438;2022-10-26T16:45:57;17.38;;;8.13;;
71562;SDS011;59391;52.504;13.438;2022-10-26T16:48:23;14.33;;;7.47;;
71562;SDS011;59391;52.504;13.438;2022-10-26T16:50:49;14.52;;;8.55;;
71562;SDS011;59391;52.504;13.438;2022-10-26T16:53:15;15.80;;;9.05;;
71562;SDS011;59391;52.504;13.438;2022-10-26T16:55:41;15.37;;;7.73;;
71562;SDS011;59391;52.504;13.438;2022-10-26T16:58:08;14.00;;;7.75;;
71562;SDS011;59391;52.504;13.438;2022-10-26T17:00:34;36.67;;;17.73;;
71562;SDS011;59391;52.504;13.438;2022-10-26T17:03:00;29.98;;;15.65;;
71562;SDS011;59391;52.504;13.438;2022-10-26T17:05:27;40.20;;;19.33;;
71562;SDS011;59391;52.504;13.438;2022-10-26T17:07:55;23.83;;;10.63;;
71562;SDS011;59391;52.504;13.438;2022-10-26T17:10:21;27.63;;;13.80;;
71562;SDS011;59391;52.504;13.438;2022-10-26T17:12:46;26.30;;;13.18;;
71562;SDS011;59391;52.504;13.438;2022-10-26T17:15:12;20.93;;;10.17;;
71562;SDS011;59391;52.504;13.438;2022-10-26T17:17:38;14.50;;;9.05;;
71562;SDS011;59391;52.504;13.438;2022-10-26T17:20:04;17.13;;;9.83;;
71562;SDS011;59391;52.504;13.438;2022-10-26T17:22:30;16.85;;;8.10;;